KMSO

Missoula International Airport

Missoula, Montana, USA
METAR KMSO 180701Z AUTO 33011KT 1 3/4SM -SN BR OVC029 00/M02 A2948 RMK AO2 P0000 T00001017
Observed Flight Rules
Feb-18 @ 07:01 UTC (14 minutes ago) Instrument Flight Rules
Wind Visibility Clouds Conditions
330° at 11 knots 1 3/4 miles
  • Overcast at 2,900' AGL
  • Light Snow
  • Mist
Temperatures Readings Precipitation
Current 0°C / 32°F
Dewpoint -2°C / 28°F
Humidity 87%
Altimeter 29.48" Hg
Pressure 998 hPa
Elevation 975
Current Rain 0.005
METAR KMSO 180701Z AUTO 33011KT 1 3/4SM -SN BR OVC029 00/M02 A2948 RMK AO2 P0000 T00001017
Observed Flight Rules
Feb-18 @ 07:01 UTC
(14 minutes ago)
IFR
Wind Visibility
330° at 11 knots 1 3/4 miles
Clouds
  • Overcast at 2,900' AGL
Conditions
  • Light Snow
  • Mist
Temperature Dewpoint
0°C / 32°F -2°C / 28°F
Humidity Altimeter Pressure
87% 29.48" Hg 998 hPa
Current Rain
0.005